Apple Valley, Utah
Current Conditions -  °F | °C
As of 5:55 AM on Thursday 23 Oct 2014 (Local Time) from KAZC Reporting Station
Clear Clear  
Wind Chill: 32°   Ceiling: Unl
Heat Index: 36°   Visibility: 10mi
Dew Point: 31°   Wind: 6mph
Humidity: 80%   Direction: 130°SE
Pressure: 30.23"   Gusts: NA
Location:  37.2274°N, 113.139°W
Report Text: KAZC 231155Z AUTO 13005KT 10SM CLR 02/M01 A3023 RMK AO2 T00241008 10388 20011
Loading
Personal Weather Stations






























Interactive Weather Map
Tropical Storm Tracking
New forecast layout! Learn more

10-Day Weather Forecast

Advertisements
Track Severe Weather on mobile